Latest Weather Observations for Cape Bruny AWS

IDT60801

Issued at 7:31 pm EST Sunday 26 June 2016 (issued every 30 minutes, with the page automatically refreshed every 10 minutes)

About weather observations | Map of weather stations | Latest weather observations for TAS | Other Formats
Station Details ID: 094198 Name: CAPE BRUNY (CAPE BRUNY) Lat: -43.49 Lon: 147.14 Height: 59.7 m
Data from the previous 72 hours. | See also: Recent months at Cape Bruny AWS
Date/Time
EST
Temp
°C
App
Temp
°C
Dew
Point
Rel
Hum
%
Delta-T
°C
Wind Press
QNH
hPa
Press
MSL
hPa
Rain
since 9 am
mm
Dir
 
Spd
km/h
Gust
km/h
Spd
kts
Gust
kts
26/07:30pm 10.4 7.3 5.4 71 2.3 NNW 11 15 6 8 1008.6 1008.7 0.0
26/07:00pm 10.8 6.8 4.9 67 2.7 NNW 15 28 8 15 1008.5 1008.6 0.0
26/06:30pm 11.5 6.2 4.9 64 3.0 NW 22 32 12 17 1008.5 1008.6 0.0
26/06:00pm 10.9 7.4 5.4 69 2.5 N 13 20 7 11 1008.6 1008.7 0.0
26/05:30pm 11.2 6.9 5.3 67 2.7 NNW 17 20 9 11 1009.0 1009.1 0.0
26/05:00pm 11.4 7.1 5.3 66 2.8 NNW 17 24 9 13 1008.9 1009.0 0.0
26/04:30pm 11.5 7.3 5.6 67 2.7 NNW 17 32 9 17 1008.7 1008.8 0.0
26/04:00pm 11.6 7.0 5.5 66 2.8 NNW 19 28 10 15 1009.0 1009.1 0.0
26/03:30pm 11.4 7.9 5.5 67 2.7 NNW 13 20 7 11 1009.2 1009.3 0.0
26/03:00pm 11.8 8.0 5.7 66 2.9 NNW 15 20 8 11 1009.2 1009.3 0.0
26/02:30pm 12.1 7.9 5.7 65 3.0 NW 17 24 9 13 1009.4 1009.5 0.0
26/02:00pm 12.7 8.5 5.6 62 3.3 NW 17 24 9 13 1009.6 1009.7 0.0
26/01:30pm 13.0 9.5 7.0 67 2.9 NNW 15 26 8 14 1009.9 1010.0 0.0
26/01:00pm 13.0 9.6 7.5 69 2.7 NNW 15 22 8 12 1010.2 1010.3 0.0
26/12:30pm 11.1 6.7 6.6 74 2.1 N 19 24 10 13 1010.6 1010.7 0.0
26/12:00pm 12.7 9.2 7.0 68 2.8 N 15 24 8 13 1011.2 1011.3 0.0
26/11:30am 10.9 6.4 6.1 72 2.2 N 19 28 10 15 1011.6 1011.7 0.0
26/11:00am 10.5 5.4 6.1 74 2.0 N 22 30 12 16 1012.3 1012.4 0.0
26/10:30am 9.6 4.0 5.4 75 1.9 N 24 32 13 17 1012.8 1012.9 0.0
26/10:00am 9.8 5.0 5.8 76 1.8 N 20 30 11 16 1012.8 1012.9 0.0
26/09:30am 9.8 6.4 6.0 77 1.8 N 13 20 7 11 1013.1 1013.2 0.0
26/09:00am 9.8 6.1 6.5 80 1.5 N 15 20 8 11 1013.1 1013.2 0.0
26/08:30am 9.3 4.5 5.7 78 1.6 N 20 26 11 14 1013.4 1013.5 0.0
26/08:00am 9.3 3.8 5.9 79 1.6 N 24 28 13 15 1013.5 1013.6 0.0
26/07:30am 9.0 4.2 5.4 78 1.6 N 20 28 11 15 1013.4 1013.5 0.0
26/07:00am 8.2 4.9 4.6 78 1.6 N 11 17 6 9 1013.4 1013.5 0.0
26/06:30am 9.6 5.2 4.8 72 2.2 NNW 17 24 9 13 1013.6 1013.7 0.0
26/06:00am 10.0 4.8 5.4 73 2.1 NW 22 30 12 16 1013.3 1013.4 0.0
26/05:30am 10.1 4.6 5.7 74 2.0 NW 24 30 13 16 1013.2 1013.3 0.0
26/05:00am 10.1 4.9 5.5 73 2.1 NW 22 28 12 15 1013.3 1013.4 0.0
26/04:30am 9.9 3.9 5.5 74 2.0 NW 26 32 14 17 1013.3 1013.4 0.0
26/04:00am 9.7 4.8 5.3 74 2.0 NNW 20 28 11 15 1013.3 1013.4 0.0
26/03:30am 9.8 3.9 5.8 76 1.8 NW 26 35 14 19 1013.4 1013.5 0.0
26/03:00am 9.2 4.7 6.1 81 1.4 NNW 19 32 10 17 1013.7 1013.8 0.0
26/02:30am 7.8 4.0 5.6 86 1.0 N 15 20 8 11 1013.9 1014.0 0.0
26/02:00am 8.9 4.8 6.3 84 1.2 NW 17 24 9 13 1014.1 1014.2 0.0
26/01:30am 7.3 3.1 5.8 90 0.7 N 17 20 9 11 1014.2 1014.3 0.0
26/01:00am 7.3 3.1 5.6 89 0.8 N 17 20 9 11 1014.5 1014.6 0.0
26/12:30am 7.3 2.7 5.4 88 0.8 N 19 20 10 11 1014.7 1014.8 0.0
26/12:00am 7.7 4.1 5.2 84 1.1 NNW 13 17 7 9 1014.9 1015.0 0.0
 
Date/Time
EST
Temp
°C
App
Temp
°C
Dew
Point
Rel
Hum
%
Delta-T
°C
Wind Press
QNH
hPa
Press
MSL
hPa
Rain
since 9 am
mm
Dir
 
Spd
km/h
Gust
km/h
Spd
kts
Gust
kts
25/11:30pm 9.4 6.0 6.1 80 1.5 NW 13 20 7 11 1015.1 1015.2 0.0
25/11:00pm 8.1 4.7 5.7 85 1.1 NNW 13 17 7 9 1015.1 1015.2 0.0
25/10:30pm 8.0 4.2 6.0 87 0.9 NNW 15 17 8 9 1015.2 1015.3 0.0
25/10:00pm 7.6 4.8 5.1 84 1.1 NW 9 15 5 8 1015.3 1015.4 0.0
25/09:30pm 7.9 4.4 5.4 84 1.1 NW 13 15 7 8 1015.4 1015.5 0.0
25/09:00pm 8.7 6.1 6.0 83 1.2 NW 9 15 5 8 1015.7 1015.8 0.0
25/08:30pm 9.6 6.7 6.5 81 1.4 NW 11 13 6 7 1015.9 1016.0 0.0
25/08:00pm 9.6 6.3 6.3 80 1.5 WNW 13 19 7 10 1015.9 1016.0 0.0
25/07:30pm 9.7 5.6 6.2 79 1.6 WNW 17 22 9 12 1016.0 1016.1 0.0
25/07:00pm 9.0 6.4 5.9 81 1.4 NW 9 13 5 7 1015.9 1016.0 0.0
25/06:30pm 8.9 5.9 5.8 81 1.4 N 11 13 6 7 1015.9 1016.0 0.0
25/06:00pm 9.6 6.2 5.8 77 1.7 NW 13 17 7 9 1015.7 1015.8 0.0
25/05:30pm 9.7 6.3 5.7 76 1.8 NW 13 19 7 10 1015.6 1015.7 0.0
25/05:00pm 9.4 5.9 5.4 76 1.8 NW 13 19 7 10 1015.5 1015.6 0.0
25/04:30pm 8.7 5.1 5.1 78 1.6 NNW 13 19 7 10 1015.3 1015.4 0.0
25/04:00pm 9.2 4.3 5.0 75 1.9 NW 20 24 11 13 1015.3 1015.4 0.0
25/03:30pm 8.8 4.4 4.6 75 1.9 NW 17 22 9 12 1015.3 1015.4 0.0
25/03:00pm 10.0 5.6 4.8 70 2.3 NW 17 20 9 11 1015.4 1015.5 0.0
25/02:30pm 10.1 5.3 4.7 69 2.4 WNW 19 28 10 15 1015.4 1015.5 0.0
25/02:00pm 10.0 5.0 4.6 69 2.4 WNW 20 26 11 14 1015.5 1015.6 0.0
25/01:30pm 10.1 5.0 4.3 67 2.6 WNW 20 26 11 14 1015.6 1015.7 0.0
25/01:00pm 9.7 4.3 4.3 69 2.4 WNW 22 30 12 16 1015.7 1015.8 0.0
25/12:30pm 8.9 2.3 4.1 72 2.1 W 28 39 15 21 1016.0 1016.1 0.0
25/12:00pm 8.9 3.0 3.9 71 2.2 W 24 32 13 17 1016.1 1016.2 0.0
25/11:30am 8.7 1.7 3.9 72 2.1 W 30 41 16 22 1016.2 1016.3 0.0
25/11:00am 8.3 1.2 3.4 71 2.1 W 30 41 16 22 1016.0 1016.1 0.0
25/10:30am 7.8 0.8 4.0 77 1.6 WNW 30 37 16 20 1016.2 1016.3 0.0
25/10:00am 7.6 1.0 4.0 78 1.6 W 28 37 15 20 1016.0 1016.1 0.0
25/09:30am 7.4 0.7 3.8 78 1.5 WNW 28 35 15 19 1015.8 1015.9 0.0
25/09:00am 7.1 0.2 4.6 84 1.1 WNW 30 37 16 20 1015.4 1015.5 11.2
25/08:30am 6.3 -0.7 4.1 86 0.9 WNW 30 37 16 20 1015.2 1015.3 11.2
25/08:00am 6.2 -1.9 3.5 83 1.1 WNW 35 43 19 23 1014.8 1014.9 11.2
25/07:30am 6.1 -1.0 3.4 83 1.1 W 30 39 16 21 1014.8 1014.9 11.0
25/07:00am 6.2 -0.5 3.4 82 1.2 WNW 28 39 15 21 1014.5 1014.6 10.8
25/06:30am 5.7 -0.7 3.0 83 1.1 W 26 33 14 18 1014.1 1014.2 10.8
25/06:02am 6.0 -1.5 3.7 85 1.0 W 32 54 17 29 1013.8 1013.9 10.6
25/06:00am 5.9 -1.2 3.7 86 0.9 WNW 30 44 16 24 1013.8 1013.9 10.6
25/05:30am 5.6 -2.9 3.3 85 1.0 W 37 50 20 27 1013.4 1013.5 10.6
25/05:26am 5.4 -3.1 3.4 87 0.8 W 37 44 20 24 1013.4 1013.5 10.6
25/05:00am 4.8 -2.1 2.7 86 0.9 WNW 28 37 15 20 1013.3 1013.4 10.4
25/04:56am 4.9 -2.4 2.6 85 0.9 WNW 30 39 16 21 1013.3 1013.4 10.4
25/04:37am 6.2 -2.7 3.2 81 1.3 W 39 61 21 33 1012.8 1012.9 10.2
25/04:30am 5.6 -1.5 3.3 85 1.0 W 30 43 16 23 1012.8 1012.9 10.0
25/04:12am 5.0 -1.8 3.3 89 0.7 W 28 37 15 20 1012.9 1013.0 10.0
25/04:03am 4.5 -4.1 2.8 89 0.7 WSW 37 56 20 30 1012.9 1013.0 10.0
25/04:00am 4.7 -4.5 3.4 91 0.5 W 41 56 22 30 1012.8 1012.9 9.4
25/03:49am 5.1 -3.5 2.8 85 0.9 W 37 56 20 30 1012.5 1012.6 8.4
25/03:30am 5.2 -2.4 2.6 83 1.1 W 32 46 17 25 1012.4 1012.5 7.8
25/03:27am 5.0 -1.9 2.4 83 1.1 WNW 28 46 15 25 1012.3 1012.4 7.8
25/03:00am 4.7 -1.8 2.4 85 0.9 WNW 26 35 14 19 1012.2 1012.3 7.8
25/02:30am 4.9 -2.9 2.8 86 0.9 W 33 39 18 21 1012.0 1012.1 7.8
25/02:00am 4.4 -5.4 2.4 87 0.8 W 43 56 23 30 1011.7 1011.8 7.8
25/01:59am 4.6 -5.1 2.8 88 0.7 W 43 59 23 32 1011.7 1011.8 7.8
25/01:39am 4.6 -3.0 2.6 87 0.8 WSW 32 50 17 27 1011.6 1011.7 7.2
25/01:30am 4.4 -5.0 2.3 86 0.8 WSW 41 52 22 28 1011.5 1011.6 6.8
25/01:00am 5.3 -4.0 2.7 83 1.1 WSW 41 63 22 34 1010.9 1011.0 6.6
25/12:59am 5.7 -3.2 3.2 84 1.0 WSW 39 61 21 33 1010.9 1011.0 6.6
25/12:30am 5.5 -1.4 2.5 81 1.2 WNW 28 35 15 19 1010.6 1010.7 6.4
25/12:00am 5.3 -2.3 2.8 84 1.0 W 32 43 17 23 1010.2 1010.3 6.4
 
Date/Time
EST
Temp
°C
App
Temp
°C
Dew
Point
Rel
Hum
%
Delta-T
°C
Wind Press
QNH
hPa
Press
MSL
hPa
Rain
since 9 am
mm
Dir
 
Spd
km/h
Gust
km/h
Spd
kts
Gust
kts
24/11:30pm 5.1 -1.4 2.6 84 1.0 WNW 26 35 14 19 1010.0 1010.1 6.4
24/11:00pm 5.1 -1.8 2.8 85 0.9 WNW 28 33 15 18 1009.4 1009.5 6.4
24/10:30pm 5.0 -1.5 2.7 85 0.9 NW 26 35 14 19 1009.4 1009.5 6.4
24/10:00pm 4.2 0.2 2.7 90 0.6 NNW 13 19 7 10 1009.2 1009.3 6.2
24/09:30pm 4.6 -0.5 2.8 88 0.7 WNW 19 28 10 15 1008.8 1008.9 5.6
24/09:00pm 4.7 1.1 3.0 89 0.7 WSW 11 19 6 10 1008.5 1008.6 5.4
24/08:30pm 4.4 -0.4 2.6 88 0.7 WSW 17 32 9 17 1007.8 1007.9 4.4
24/08:12pm 5.1 -0.6 3.1 87 0.8 W 22 41 12 22 1007.6 1007.7 3.6
24/08:00pm 4.5 -0.3 2.4 86 0.8 WSW 17 28 9 15 1007.2 1007.3 3.4
24/07:30pm 5.0 -0.4 2.7 85 0.9 SW 20 32 11 17 1006.9 1007.0 2.0
24/07:00pm 4.9 -2.0 2.8 86 0.9 WSW 28 39 15 21 1006.3 1006.4 1.2
24/06:34pm 5.1 -3.8 3.0 86 0.9 WSW 39 57 21 31 1005.8 1005.8 0.2
24/06:30pm 5.0 -4.9 2.7 85 0.9 WSW 44 57 24 31 1005.6 1005.6 0.2
24/06:00pm 6.0 -1.4 1.9 75 1.7 W 30 41 16 22 1004.6 1004.6 0.0
24/05:30pm 5.8 -0.4 1.9 76 1.6 WSW 24 32 13 17 1003.9 1003.9 0.0
24/05:00pm 6.1 -1.5 2.7 79 1.4 W 32 41 17 22 1003.4 1003.4 0.0
24/04:30pm 6.6 -2.1 1.9 72 1.9 W 37 50 20 27 1002.7 1002.7 0.0
24/04:00pm 6.7 -2.1 1.2 68 2.2 W 37 46 20 25 1001.9 1001.9 0.0
24/03:30pm 6.5 -0.8 2.4 75 1.7 W 30 41 16 22 1001.4 1001.5 0.0
24/03:00pm 6.3 -2.3 2.4 76 1.6 W 37 48 20 26 1000.8 1000.9 0.0
24/02:30pm 7.2 -0.9 3.1 75 1.7 WSW 35 46 19 25 1000.0 1000.1 0.0
24/02:00pm 7.6 -0.4 1.7 66 2.4 WSW 33 44 18 24 999.4 999.5 0.0
24/01:51pm 7.9 2.0 1.5 64 2.6 W 22 43 12 23 999.3 999.4 0.0
24/01:30pm 8.9 4.2 2.9 66 2.6 WNW 17 20 9 11 999.2 999.3 0.0
24/01:00pm 8.2 3.7 2.0 65 2.6 W 15 20 8 11 999.0 999.1 0.0
24/12:30pm 8.7 3.2 2.1 63 2.8 WSW 20 24 11 13 998.7 998.8 0.0
24/12:00pm 9.3 5.8 3.5 67 2.5 W 11 19 6 10 998.4 998.5 0.0
24/11:30am 9.0 4.2 2.8 65 2.6 WNW 17 24 9 13 998.2 998.3 0.0
24/11:00am 7.7 3.5 1.5 65 2.5 NW 13 17 7 9 998.0 998.1 0.0
24/10:30am 7.7 3.7 2.6 70 2.1 NW 13 17 7 9 997.7 997.8 0.0
24/10:00am 6.0 2.3 2.3 77 1.5 NW 11 15 6 8 997.2 997.3 0.0
24/09:30am 6.3 1.4 2.2 75 1.7 W 17 22 9 12 997.0 997.1 0.0
24/09:00am 5.6 1.5 2.3 79 1.4 WSW 13 19 7 10 996.6 996.7 0.0
24/08:30am 5.5 -1.8 2.7 82 1.1 WSW 30 46 16 25 996.7 996.8 0.0
24/08:14am 6.2 0.4 2.3 76 1.6 WNW 22 59 12 32 996.4 996.5 0.0
24/08:00am 5.7 -0.2 2.0 77 1.5 NNW 22 28 12 15 995.8 995.9 0.0
24/07:30am 5.1 0.2 1.8 79 1.3 N 17 19 9 10 995.4 995.5 0.0
24/07:00am 5.3 0.8 2.0 79 1.3 N 15 20 8 11 994.7 994.8 0.0
24/06:30am 5.7 0.3 2.4 79 1.3 N 20 26 11 14 994.6 994.7 0.0
24/06:00am 5.4 0.5 1.9 78 1.4 N 17 20 9 11 994.1 994.2 0.0
24/05:30am 6.4 0.4 0.9 68 2.2 NW 22 30 12 16 993.7 993.8 0.0
24/05:00am 5.8 0.8 1.3 73 1.8 NNW 17 24 9 13 993.5 993.6 0.0
24/04:30am 4.5 -0.3 0.1 73 1.7 N 15 20 8 11 993.0 993.1 0.0
24/04:00am 4.4 -0.3 0.9 78 1.4 N 15 20 8 11 992.7 992.8 0.0
24/03:30am 4.9 0.2 0.9 75 1.6 N 15 20 8 11 992.5 992.6 0.0
24/03:00am 6.7 -1.3 0.2 63 2.6 NW 32 48 17 26 992.2 992.3 0.0
24/02:55am 6.5 -0.7 0.6 66 2.3 NW 28 48 15 26 992.1 992.1 0.0
24/02:30am 6.8 -1.5 2.3 73 1.9 WNW 35 46 19 25 992.1 992.1 0.0
24/02:24am 6.6 -0.4 1.7 71 2.0 WNW 28 46 15 25 991.9 991.9 0.0
24/02:00am 6.0 -1.2 0.8 69 2.1 NW 28 35 15 19 991.9 991.9 0.0
24/01:30am 6.7 0.6 0.4 64 2.5 NW 22 30 12 16 992.4 992.5 0.0
24/01:00am 6.6 -2.4 0.1 63 2.6 NW 37 46 20 25 991.8 991.8 0.0
24/12:49am 6.3 -0.9 0.8 68 2.2 NW 28 39 15 21 991.7 991.7 0.0
24/12:30am 5.4 0.8 1.5 76 1.6 NW 15 19 8 10 991.9 991.9 0.0
24/12:19am 6.5 0.1 1.2 69 2.1 WNW 24 33 13 18 991.7 991.7 0.0
24/12:00am 6.7 -2.4 1.6 70 2.1 WNW 39 48 21 26 991.4 991.4 0.0
 
Date/Time
EST
Temp
°C
App
Temp
°C
Dew
Point
Rel
Hum
%
Delta-T
°C
Wind Press
QNH
hPa
Press
MSL
hPa
Rain
since 9 am
mm
Dir
 
Spd
km/h
Gust
km/h
Spd
kts
Gust
kts
23/11:30pm 6.1 -0.3 1.1 70 2.0 NW 24 32 13 17 991.4 991.4 0.0
23/11:08pm 6.9 1.0 1.8 70 2.1 NW 22 43 12 23 991.7 991.7 0.0
23/11:00pm 6.7 1.4 2.0 72 1.9 NW 19 24 10 13 991.8 991.8 0.0
23/10:30pm 7.0 0.9 0.7 64 2.5 NW 22 32 12 17 991.2 991.2 0.0
23/10:00pm 7.0 -1.1 0.7 64 2.5 NW 33 44 18 24 991.0 991.0 0.0
23/09:49pm 7.2 0.0 0.9 64 2.5 NW 28 48 15 26 990.9 990.9 0.0
23/09:30pm 6.8 -0.7 1.5 69 2.1 NW 30 39 16 21 991.1 991.1 0.0
23/09:00pm 7.1 0.1 2.0 70 2.1 WNW 28 41 15 22 990.7 990.7 0.0
23/08:30pm 7.3 0.7 1.8 68 2.2 WNW 26 35 14 19 990.5 990.5 0.0
23/08:00pm 7.4 2.0 2.5 71 2.1 NW 20 26 11 14 990.1 990.1 0.0

Other Formats:

Comma delimited format used in spreadsheet applications
http://www.bom.gov.au/fwo/IDT60801/IDT60801.95967.axf

JavaScript Object Notation format (JSON) in row-major order
http://www.bom.gov.au/fwo/IDT60801/IDT60801.95967.json